Time;durP1;ratioP1;P1;durP2;ratioP2;P2;SDS_P1;SDS_P2;PMS_P1;PMS_P2;Temp;Humidity;BMP_temperature;BMP_pressure;BME280_temperature;BME280_humidity;BME280_pressure;Samples;Min_cycle;Max_cycle;Signal;HPM_P1;HPM_P2
2022/12/06 00:03:43;;;;;;;40.33;21.60;;;2.00;99.90;;;;;;2615127;54;20746;-75
2022/12/06 00:09:31;;;;;;;31.77;22.80;;;2.20;99.90;;;;;;2615049;54;20395;-74
2022/12/06 00:15:19;;;;;;;42.63;21.17;;;2.10;99.90;;;;;;2615149;54;20390;-73
2022/12/06 00:21:14;;;;;;;42.80;22.97;;;2.10;99.90;;;;;;2614930;54;20126;-78
2022/12/06 00:27:02;;;;;;;38.53;22.30;;;2.10;99.90;;;;;;2614032;54;20403;-74
2022/12/06 00:32:50;;;;;;;52.60;22.07;;;2.20;99.90;;;;;;2614577;54;20118;-73
2022/12/06 00:38:37;;;;;;;40.20;21.73;;;2.20;99.90;;;;;;2615050;39;20242;-76
2022/12/06 00:44:25;;;;;;;36.87;21.27;;;2.20;99.90;;;;;;2614723;54;20235;-73
2022/12/06 00:50:12;;;;;;;41.17;20.80;;;2.20;99.90;;;;;;2615001;54;20201;-74
2022/12/06 00:53:31;;;;;;;37.07;21.07;;;2.20;99.90;;;;;;2614441;47;20850;-74
2022/12/06 00:59:18;;;;;;;40.93;20.33;;;2.20;99.90;;;;;;2615680;54;20410;-73
2022/12/06 01:05:06;;;;;;;42.53;21.37;;;2.20;99.90;;;;;;2615782;54;20753;-75
2022/12/06 01:10:54;;;;;;;38.63;22.47;;;2.20;99.90;;;;;;2615411;54;20395;-74
2022/12/06 01:16:42;;;;;;;41.40;21.23;;;2.30;99.90;;;;;;2615382;54;20239;-75
2022/12/06 01:22:30;;;;;;;45.30;23.33;;;2.30;99.90;;;;;;2615502;54;20123;-73
2022/12/06 01:28:17;;;;;;;43.87;23.20;;;2.20;99.90;;;;;;2615092;39;20215;-74
2022/12/06 01:34:08;;;;;;;48.90;23.83;;;2.40;99.90;;;;;;2614858;54;20126;-75
2022/12/06 01:39:56;;;;;;;44.23;23.83;;;2.30;99.90;;;;;;2613080;39;20818;-75
2022/12/06 01:45:44;;;;;;;37.53;20.80;;;2.30;99.90;;;;;;2615937;54;20171;-74
2022/12/06 01:48:59;;;;;;;42.03;20.63;;;2.30;99.90;;;;;;2615393;31;20851;-74
2022/12/06 01:51:25;;;;;;;43.83;20.03;;;2.20;99.90;;;;;;2614923;54;20154;-74
2022/12/06 01:57:15;;;;;;;36.93;19.07;;;2.30;99.90;;;;;;2615526;54;20393;-73
2022/12/06 02:03:05;;;;;;;31.13;18.83;;;2.10;99.90;;;;;;2614552;46;20531;-75
2022/12/06 02:08:55;;;;;;;38.47;21.63;;;2.20;99.90;;;;;;2614445;39;20809;-75
2022/12/06 02:14:47;;;;;;;35.40;19.37;;;2.20;99.90;;;;;;2614576;46;20442;-76
2022/12/06 02:27:09;;;;;;;37.80;18.90;;;2.30;99.90;;;;;;2614888;54;20382;-75
2022/12/06 02:33:00;;;;;;;38.17;21.37;;;2.30;99.90;;;;;;2613740;54;20403;-74
2022/12/06 02:38:54;;;;;;;39.43;21.37;;;2.30;99.90;;;;;;2614515;54;20410;-73
2022/12/06 02:51:18;;;;;;;45.93;21.70;;;2.30;99.90;;;;;;2612786;54;20450;-76
2022/12/06 02:54:06;;;;;;;39.23;19.83;;;2.20;99.90;;;;;;2612785;39;20833;-74
2022/12/06 02:56:33;;;;;;;37.00;21.20;;;2.20;99.90;;;;;;2612006;54;20523;-75
2022/12/06 03:02:22;;;;;;;40.33;20.27;;;2.30;99.90;;;;;;2613313;39;20903;-77
2022/12/06 03:27:29;;;;;;;53.47;20.30;;;2.40;99.90;;;;;;2613372;54;20445;-74
2022/12/06 03:33:21;;;;;;;44.83;20.50;;;2.30;99.90;;;;;;2613667;54;20492;-72
2022/12/06 03:39:11;;;;;;;57.37;24.57;;;2.40;99.90;;;;;;2613669;54;20420;-74
2022/12/06 03:44:59;;;;;;;56.67;21.83;;;2.50;99.90;;;;;;2612706;54;20367;-74
2022/12/06 03:54:09;;;;;;;55.53;23.93;;;2.50;99.90;;;;;;2613004;54;21272;-74
2022/12/06 03:59:56;;;;;;;57.53;27.73;;;2.50;99.90;;;;;;2612903;54;20394;-76
2022/12/06 04:05:44;;;;;;;50.80;21.57;;;2.60;99.90;;;;;;2614810;54;20126;-74
2022/12/06 04:11:32;;;;;;;92.07;28.10;;;2.60;99.90;;;;;;2612653;54;20704;-76
2022/12/06 04:23:27;;;;;;;80.20;27.33;;;2.60;99.90;;;;;;2614626;46;20405;-73
2022/12/06 04:47:33;;;;;;;67.53;26.63;;;2.70;99.90;;;;;;2614430;54;20373;-74
2022/12/06 04:56:49;;;;;;;47.33;25.07;;;2.70;99.90;;;;;;2614386;54;20398;-75
2022/12/06 05:02:37;;;;;;;59.17;26.07;;;2.80;99.90;;;;;;2614169;54;20387;-75
2022/12/06 05:08:24;;;;;;;53.03;24.83;;;2.80;99.90;;;;;;2613783;54;20664;-77
2022/12/06 05:14:15;;;;;;;56.20;25.80;;;2.90;99.90;;;;;;2614177;54;20143;-76
2022/12/06 05:20:03;;;;;;;64.53;24.87;;;2.90;99.90;;;;;;2613642;46;20386;-73
2022/12/06 05:32:21;;;;;;;43.63;24.30;;;3.10;99.90;;;;;;2614473;54;20430;-76
2022/12/06 05:38:08;;;;;;;57.10;24.77;;;3.10;99.90;;;;;;2615601;54;20515;-75
2022/12/06 05:43:56;;;;;;;43.60;20.53;;;3.10;99.90;;;;;;2614599;54;20692;-76
2022/12/06 05:49:44;;;;;;;46.63;22.30;;;3.40;99.90;;;;;;2615028;54;20162;-75
2022/12/06 05:52:17;;;;;;;50.63;23.47;;;3.40;99.90;;;;;;2612221;54;20932;-75
2022/12/06 05:54:43;;;;;;;55.97;22.27;;;3.40;99.90;;;;;;2614880;54;20278;-75
2022/12/06 06:00:31;;;;;;;45.07;22.23;;;3.50;99.90;;;;;;2613984;54;20130;-75
2022/12/06 06:06:20;;;;;;;46.80;22.20;;;3.50;99.90;;;;;;2614633;54;20398;-72
2022/12/06 06:12:08;;;;;;;42.87;22.57;;;3.60;99.90;;;;;;2614323;54;20363;-76
2022/12/06 06:17:56;;;;;;;46.33;23.43;;;3.70;99.90;;;;;;2615004;46;20402;-75
2022/12/06 06:23:43;;;;;;;41.87;21.80;;;3.80;99.90;;;;;;2615613;31;20636;-74
2022/12/06 06:29:31;;;;;;;39.13;19.30;;;3.80;99.90;;;;;;2614866;54;20127;-76
2022/12/06 06:35:19;;;;;;;32.60;21.87;;;3.80;99.90;;;;;;2615119;54;20155;-74
2022/12/06 06:41:06;;;;;;;41.83;21.63;;;3.80;99.90;;;;;;2611166;54;20130;-74
2022/12/06 06:46:54;;;;;;;39.93;22.13;;;3.90;99.90;;;;;;2610200;54;20151;-73
2022/12/06 06:56:48;;;;;;;40.33;21.90;;;3.90;99.90;;;;;;2612727;54;20447;-74
2022/12/06 07:02:38;;;;;;;33.97;20.50;;;4.00;99.90;;;;;;2611883;54;20512;-74
2022/12/06 07:08:27;;;;;;;47.60;24.90;;;4.00;99.90;;;;;;2611891;54;20373;-74
2022/12/06 07:14:15;;;;;;;42.60;20.53;;;4.20;99.90;;;;;;2613033;54;20405;-73
2022/12/06 07:20:04;;;;;;;47.83;24.73;;;4.10;99.90;;;;;;2612397;54;20166;-73
2022/12/06 07:36:38;;;;;;;42.57;22.87;;;4.10;99.90;;;;;;2614435;54;20519;-74
2022/12/06 07:45:12;;;;;;;48.43;22.23;;;4.30;99.90;;;;;;2609891;54;20425;-73
2022/12/06 07:47:41;;;;;;;42.70;21.03;;;4.30;99.90;;;;;;2608126;46;20592;-72
2022/12/06 07:56:51;;;;;;;44.33;23.70;;;4.30;99.90;;;;;;2613521;46;20419;-72
2022/12/06 08:02:38;;;;;;;37.07;20.30;;;4.40;99.90;;;;;;2614023;54;20377;-73
2022/12/06 08:08:27;;;;;;;45.80;20.33;;;4.30;99.90;;;;;;2614548;54;20398;-74
2022/12/06 08:14:14;;;;;;;37.53;20.40;;;4.30;99.90;;;;;;2612583;46;20605;-74
2022/12/06 08:20:02;;;;;;;33.33;20.67;;;4.20;99.90;;;;;;2612615;54;20154;-73
2022/12/06 08:25:57;;;;;;;40.73;20.37;;;4.40;99.90;;;;;;2611079;54;20190;-73
2022/12/06 08:31:45;;;;;;;35.70;19.57;;;4.40;99.90;;;;;;2612017;46;20454;-74
2022/12/06 08:37:33;;;;;;;36.63;19.83;;;4.50;99.90;;;;;;2612274;54;20403;-72
2022/12/06 08:43:21;;;;;;;31.83;18.37;;;4.60;99.90;;;;;;2612306;54;20419;-74
2022/12/06 08:49:10;;;;;;;30.93;17.90;;;4.60;99.90;;;;;;2612581;54;20138;-75
2022/12/06 08:52:15;;;;;;;27.53;17.63;;;4.70;99.90;;;;;;2610345;54;20430;-74
2022/12/06 08:54:40;;;;;;;27.53;16.33;;;4.70;99.90;;;;;;2614048;54;20447;-73
2022/12/06 09:00:28;;;;;;;21.90;14.87;;;4.70;99.90;;;;;;2613379;54;20206;-74
2022/12/06 09:06:18;;;;;;;26.07;14.73;;;4.70;99.90;;;;;;2613127;54;20142;-74
2022/12/06 09:12:06;;;;;;;23.67;14.00;;;4.70;99.90;;;;;;2613015;54;20418;-72
2022/12/06 09:17:53;;;;;;;18.47;12.00;;;4.70;99.90;;;;;;2614989;54;20150;-72
2022/12/06 09:23:41;;;;;;;18.90;12.97;;;4.80;99.90;;;;;;2615589;39;20516;-74
2022/12/06 09:29:29;;;;;;;22.80;13.13;;;4.80;99.90;;;;;;2612297;54;20410;-72
2022/12/06 09:35:17;;;;;;;21.83;12.53;;;4.90;99.90;;;;;;2613806;39;20734;-74
2022/12/06 10:30:20;;;;;;;21.10;13.80;;;5.20;99.90;;;;;;2611514;54;20911;-74
2022/12/06 10:36:14;;;;;;;21.13;12.40;;;5.20;99.90;;;;;;2609980;54;20162;-74
2022/12/06 10:52:19;;;;;;;18.57;12.23;;;5.20;99.90;;;;;;2601383;54;20503;-74
2022/12/06 10:55:10;;;;;;;21.77;11.80;;;5.40;99.90;;;;;;2603907;54;20434;-73
2022/12/06 11:01:01;;;;;;;17.30;10.63;;;5.30;99.90;;;;;;2604058;54;20392;-72
2022/12/06 11:06:54;;;;;;;22.70;11.93;;;5.40;99.90;;;;;;2604916;39;21118;-72
2022/12/06 11:12:42;;;;;;;15.07;11.20;;;5.50;99.90;;;;;;2606260;39;20845;-73
2022/12/06 11:18:30;;;;;;;18.07;12.23;;;5.40;99.90;;;;;;2604836;54;20394;-73
2022/12/06 11:24:27;;;;;;;20.90;14.77;;;5.70;99.90;;;;;;2604564;54;20571;-73
2022/12/06 11:30:18;;;;;;;13.33;10.53;;;5.80;99.90;;;;;;2605795;54;20399;-72
2022/12/06 11:33:21;;;;;;;15.60;11.37;;;5.80;99.90;;;;;;2606715;39;20812;-73
2022/12/06 11:35:47;;;;;;;17.83;11.53;;;6.00;99.90;;;;;;2606096;54;20415;-74
2022/12/06 11:41:36;;;;;;;18.47;11.90;;;6.00;99.90;;;;;;2609307;54;20154;-72
2022/12/06 11:47:23;;;;;;;22.83;15.83;;;6.10;99.90;;;;;;2606216;54;20447;-73
2022/12/06 11:56:56;;;;;;;25.00;16.27;;;5.70;99.90;;;;;;2611989;54;20407;-76
2022/12/06 12:02:46;;;;;;;19.70;13.13;;;5.60;99.90;;;;;;2614997;54;20443;-74
2022/12/06 12:08:34;;;;;;;21.40;13.47;;;5.70;99.90;;;;;;2612711;54;20406;-74
2022/12/06 12:25:12;;;;;;;10.77;7.70;;;5.90;99.90;;;;;;2614449;39;20801;-73
2022/12/06 12:37:36;;;;;;;17.43;9.40;;;5.40;99.90;;;;;;2613734;54;20398;-74
2022/12/06 12:43:29;;;;;;;14.47;8.90;;;5.30;99.90;;;;;;2614966;54;20424;-76
2022/12/06 12:49:25;;;;;;;16.43;10.57;;;9.10;99.90;;;;;;2614752;54;20980;-77
2022/12/06 12:58:54;;;;;;;7.10;6.40;;;11.20;99.90;;;;;;2614794;54;20426;-74
2022/12/06 13:04:47;;;;;;;9.93;6.03;;;7.40;99.90;;;;;;2613696;54;21019;-76
2022/12/06 13:10:38;;;;;;;7.50;6.80;;;6.40;99.90;;;;;;2614159;54;20399;-75
2022/12/06 13:23:04;;;;;;;6.37;5.77;;;6.20;99.90;;;;;;2615816;54;20399;-77
2022/12/06 13:29:03;;;;;;;7.90;5.10;;;6.10;99.90;;;;;;2614264;54;20415;-76
2022/12/06 13:34:55;;;;;;;6.90;6.03;;;6.00;99.90;;;;;;2615903;46;20850;-76
2022/12/06 13:40:48;;;;;;;5.87;5.23;;;6.20;99.90;;;;;;2614926;39;20767;-77
2022/12/06 13:46:36;;;;;;;7.00;6.07;;;6.00;99.90;;;;;;2612635;39;20849;-77
2022/12/06 13:59:11;;;;;;;8.20;5.47;;;5.80;99.90;;;;;;2615125;39;20788;-75
2022/12/06 14:04:59;;;;;;;10.20;5.97;;;5.70;99.90;;;;;;2613467;54;20399;-73
2022/12/06 14:10:47;;;;;;;8.33;6.57;;;5.60;99.90;;;;;;2613468;54;20174;-76
2022/12/06 14:30:00;;;;;;;10.30;5.50;;;5.80;99.90;;;;;;2613684;54;20402;-78
2022/12/06 14:35:51;;;;;;;10.30;7.60;;;5.90;99.90;;;;;;2614063;54;20488;-75
2022/12/06 14:47:45;;;;;;;7.90;5.87;;;5.80;99.90;;;;;;2613233;54;20919;-75
2022/12/06 14:56:54;;;;;;;11.97;7.23;;;5.60;99.90;;;;;;2614493;39;20816;-74
2022/12/06 15:02:59;;;;;;;13.17;9.40;;;5.60;99.90;;;;;;2614197;54;20206;-77
2022/12/06 15:15:35;;;;;;;11.10;8.60;;;5.70;99.90;;;;;;2613407;54;20498;-77
2022/12/06 15:21:23;;;;;;;11.10;7.23;;;5.60;99.90;;;;;;2614530;54;20972;-73
2022/12/06 15:27:11;;;;;;;10.63;8.10;;;5.70;99.90;;;;;;2614908;54;20219;-76
2022/12/06 15:32:59;;;;;;;10.43;9.33;;;5.70;99.90;;;;;;2613957;54;20407;-77
2022/12/06 15:38:47;;;;;;;9.23;8.00;;;5.60;99.90;;;;;;2612243;54;20138;-76
2022/12/06 15:44:34;;;;;;;11.30;7.80;;;5.50;99.90;;;;;;2610671;54;20588;-77
2022/12/06 15:50:22;;;;;;;11.50;7.37;;;5.50;99.90;;;;;;2612196;54;20166;-77
2022/12/06 15:56:15;;;;;;;9.80;7.63;;;5.50;99.90;;;;;;2612319;54;20134;-78
2022/12/06 16:02:03;;;;;;;12.00;8.20;;;5.40;99.90;;;;;;2611769;54;20409;-77
2022/12/06 16:07:50;;;;;;;19.17;8.27;;;5.30;99.90;;;;;;2613792;54;20121;-78
2022/12/06 16:13:38;;;;;;;9.43;7.60;;;5.30;99.90;;;;;;2613892;54;20188;-75
2022/12/06 16:20:29;;;;;;;12.00;7.67;;;5.20;99.90;;;;;;2613608;39;20797;-79
2022/12/06 16:25:34;;;;;;;10.47;7.33;;;5.30;99.90;;;;;;2612652;54;20492;-77
2022/12/06 16:31:22;;;;;;;9.80;7.60;;;5.40;99.90;;;;;;2611055;54;20655;-79
2022/12/06 16:37:10;;;;;;;11.20;7.87;;;5.40;99.90;;;;;;2612832;54;20127;-77
2022/12/06 16:42:57;;;;;;;9.10;7.07;;;5.40;99.90;;;;;;2611969;39;20874;-79
2022/12/06 16:48:46;;;;;;;10.60;8.07;;;5.40;99.90;;;;;;2612328;54;20142;-78
2022/12/06 16:51:12;;;;;;;17.50;12.07;;;5.40;99.90;;;;;;2611808;54;20479;-76
2022/12/06 16:53:37;;;;;;;16.27;11.30;;;5.50;99.90;;;;;;2612240;46;20450;-76
2022/12/06 16:56:03;;;;;;;24.10;11.90;;;5.40;99.90;;;;;;2611410;54;20159;-77
2022/12/06 16:58:29;;;;;;;13.90;11.23;;;5.40;99.90;;;;;;2612362;54;20162;-75
2022/12/06 17:00:55;;;;;;;15.50;10.70;;;5.40;99.90;;;;;;2609991;54;20460;-75
2022/12/06 17:03:20;;;;;;;24.53;15.10;;;5.40;99.90;;;;;;2610630;54;20202;-77
2022/12/06 17:09:10;;;;;;;20.73;12.50;;;5.40;99.90;;;;;;2612984;54;20150;-76
2022/12/06 17:14:58;;;;;;;17.97;12.17;;;5.30;99.90;;;;;;2612189;54;20370;-76
2022/12/06 17:20:46;;;;;;;19.70;13.07;;;5.40;99.90;;;;;;2613711;54;20390;-76
2022/12/06 17:26:34;;;;;;;23.40;16.20;;;5.40;99.90;;;;;;2613293;54;20130;-75
2022/12/06 17:32:22;;;;;;;15.73;11.77;;;5.40;99.90;;;;;;2612783;46;20141;-76
2022/12/06 17:38:10;;;;;;;13.43;9.83;;;5.40;99.90;;;;;;2614698;54;20557;-76
2022/12/06 17:43:58;;;;;;;15.57;11.73;;;5.30;99.90;;;;;;2614069;54;20154;-76
2022/12/06 17:49:46;;;;;;;14.73;9.90;;;5.30;99.90;;;;;;2613951;54;20395;-74
2022/12/06 17:52:23;;;;;;;15.20;10.90;;;5.40;99.90;;;;;;2615149;46;20967;-77
2022/12/06 17:58:55;;;;;;;28.90;14.03;;;5.40;99.90;;;;;;2614378;54;20390;-74
2022/12/06 18:04:43;;;;;;;13.87;9.33;;;5.40;99.90;;;;;;2614756;54;20398;-77
2022/12/06 18:10:30;;;;;;;11.43;9.27;;;5.40;99.90;;;;;;2615084;54;20414;-76
2022/12/06 18:16:25;;;;;;;9.40;7.90;;;5.60;99.90;;;;;;2615090;54;20423;-75
2022/12/06 18:22:14;;;;;;;9.93;8.33;;;5.50;99.90;;;;;;2613249;54;20431;-76
2022/12/06 18:28:01;;;;;;;10.60;7.93;;;5.50;99.90;;;;;;2612713;54;20404;-77
2022/12/06 18:33:50;;;;;;;11.30;7.60;;;5.60;99.90;;;;;;2611622;54;20138;-74
2022/12/06 18:39:38;;;;;;;21.53;9.70;;;5.50;99.90;;;;;;2610398;54;20467;-74
2022/12/06 18:45:25;;;;;;;12.07;8.80;;;5.60;99.90;;;;;;2613357;54;20210;-76
2022/12/06 18:51:16;;;;;;;23.00;15.03;;;5.70;99.90;;;;;;2611110;54;20158;-75
2022/12/06 18:54:21;;;;;;;14.20;9.30;;;5.70;99.90;;;;;;2611664;54;20839;-79
2022/12/06 18:56:47;;;;;;;12.67;9.40;;;5.70;99.90;;;;;;2611952;47;20423;-78
2022/12/06 19:02:35;;;;;;;13.47;7.80;;;5.70;99.90;;;;;;2612276;54;20158;-78
2022/12/06 19:08:22;;;;;;;14.70;9.30;;;5.70;99.90;;;;;;2612420;39;20540;-78
2022/12/06 19:14:12;;;;;;;10.87;7.43;;;5.70;99.90;;;;;;2610785;54;20138;-78
2022/12/06 19:19:59;;;;;;;11.97;7.23;;;5.70;99.90;;;;;;2612500;54;20415;-79
2022/12/06 19:25:47;;;;;;;10.00;7.50;;;5.70;99.90;;;;;;2611710;54;20162;-78
2022/12/06 19:31:35;;;;;;;14.03;8.80;;;5.70;99.90;;;;;;2612088;39;20533;-77
2022/12/06 19:37:23;;;;;;;12.43;8.60;;;5.70;99.90;;;;;;2612770;39;20529;-76
2022/12/06 19:39:49;;;;;;;11.33;8.20;;;5.60;99.90;;;;;;2611525;54;20414;-76
2022/12/06 19:48:21;;;;;;;16.77;9.77;;;5.60;99.90;;;;;;2613068;39;20787;-77
2022/12/06 19:54:12;;;;;;;11.23;8.23;;;5.60;99.90;;;;;;2608076;54;20219;-78
2022/12/06 20:00:00;;;;;;;14.47;10.13;;;5.60;99.90;;;;;;2614994;54;20371;-78
2022/12/06 20:05:48;;;;;;;13.37;9.50;;;5.60;99.90;;;;;;2614846;54;20153;-77
2022/12/06 20:17:44;;;;;;;19.57;11.83;;;5.50;99.90;;;;;;2613821;54;20402;-78
2022/12/06 20:23:32;;;;;;;15.17;11.80;;;5.50;99.90;;;;;;2614072;54;20965;-77
2022/12/06 20:29:20;;;;;;;16.87;12.10;;;5.50;99.90;;;;;;2614642;54;20254;-78
2022/12/06 20:35:08;;;;;;;16.77;11.60;;;5.40;99.90;;;;;;2613844;39;20759;-72
2022/12/06 20:40:56;;;;;;;16.30;11.60;;;5.40;99.90;;;;;;2612042;54;20740;-75
2022/12/06 20:46:44;;;;;;;17.57;12.57;;;5.40;99.90;;;;;;2611507;54;20162;-78
2022/12/06 20:52:32;;;;;;;21.67;13.43;;;5.30;99.90;;;;;;2611952;39;20755;-75
2022/12/06 21:01:42;;;;;;;16.80;11.70;;;5.30;99.90;;;;;;2610497;31;20938;-76
2022/12/06 21:07:29;;;;;;;18.30;14.00;;;5.30;99.90;;;;;;2612824;54;20624;-77
2022/12/06 21:13:17;;;;;;;24.30;14.37;;;5.30;99.90;;;;;;2611177;54;20258;-78
2022/12/06 21:19:09;;;;;;;21.97;15.83;;;5.30;99.90;;;;;;2611999;39;20517;-74
2022/12/06 21:24:57;;;;;;;21.50;15.37;;;5.40;99.90;;;;;;2612372;54;20483;-76
2022/12/06 21:30:50;;;;;;;21.50;15.27;;;5.40;99.90;;;;;;2613940;54;20247;-78
2022/12/06 21:36:38;;;;;;;23.83;17.53;;;5.50;99.90;;;;;;2614052;39;21099;-79
2022/12/06 21:42:25;;;;;;;29.00;18.67;;;5.50;99.90;;;;;;2614297;54;20366;-79
2022/12/06 21:48:13;;;;;;;26.50;19.33;;;5.50;99.90;;;;;;2612779;46;20864;-77
2022/12/06 21:54:01;;;;;;;24.30;17.53;;;5.60;99.90;;;;;;2611552;54;20178;-78
2022/12/06 21:57:13;;;;;;;22.17;17.53;;;5.60;99.90;;;;;;2609901;54;20411;-78
2022/12/06 21:59:38;;;;;;;28.30;19.10;;;5.50;99.90;;;;;;2611286;54;20198;-79
2022/12/06 22:05:26;;;;;;;30.30;19.50;;;5.60;99.90;;;;;;2611798;54;20154;-75
2022/12/06 22:11:18;;;;;;;28.57;21.13;;;5.50;99.90;;;;;;2612733;54;20137;-78
2022/12/06 22:17:05;;;;;;;28.93;20.67;;;5.50;99.90;;;;;;2612167;54;20470;-78
2022/12/06 22:22:56;;;;;;;32.80;21.67;;;5.50;99.90;;;;;;2612557;54;20213;-76
2022/12/06 22:28:44;;;;;;;28.53;21.03;;;5.50;99.90;;;;;;2611613;54;20395;-78
2022/12/06 22:34:32;;;;;;;36.40;24.30;;;5.50;99.90;;;;;;2612445;54;20378;-78
2022/12/06 22:40:20;;;;;;;30.73;20.50;;;5.60;99.90;;;;;;2614585;54;20394;-79
2022/12/06 22:46:10;;;;;;;29.70;21.33;;;5.50;99.90;;;;;;2613729;54;20138;-73
2022/12/06 22:51:58;;;;;;;27.40;20.67;;;5.50;99.90;;;;;;2613592;54;20390;-77
2022/12/06 23:01:45;;;;;;;40.53;23.33;;;5.40;99.90;;;;;;2614277;54;20379;-76
2022/12/06 23:07:33;;;;;;;32.70;22.63;;;5.40;99.90;;;;;;2614070;54;20422;-73
2022/12/06 23:13:20;;;;;;;40.43;23.57;;;5.40;99.90;;;;;;2614350;39;20557;-78
2022/12/06 23:19:09;;;;;;;38.57;24.23;;;5.40;99.90;;;;;;2613875;54;20162;-77
2022/12/06 23:24:56;;;;;;;40.03;26.23;;;5.40;99.90;;;;;;2614909;39;20790;-78
2022/12/06 23:30:44;;;;;;;43.33;26.70;;;5.40;99.90;;;;;;2614117;54;20138;-79
2022/12/06 23:33:47;;;;;;;41.37;26.70;;;5.40;99.90;;;;;;2612918;47;20566;-77
2022/12/06 23:36:18;;;;;;;41.73;28.47;;;5.40;99.90;;;;;;2614414;46;20174;-74
2022/12/06 23:42:06;;;;;;;38.67;25.97;;;5.40;99.90;;;;;;2613347;54;20411;-77
2022/12/06 23:47:54;;;;;;;40.23;26.77;;;5.40;99.90;;;;;;2614452;54;20130;-78
2022/12/06 23:53:43;;;;;;;36.60;23.80;;;5.40;99.90;;;;;;2614683;54;20143;-80
2022/12/06 23:59:31;;;;;;;36.77;23.47;;;5.40;99.90;;;;;;2613892;54;20462;-79
